sensor_id;sensor_type;location;lat;lon;timestamp;temperature;humidity
75210;DHT22;63796;53.136;14.882;2023-06-14T00:01:48;15.50;99.90
75210;DHT22;63796;53.136;14.882;2023-06-14T00:04:15;15.50;99.90
75210;DHT22;63796;53.136;14.882;2023-06-14T00:06:47;15.50;99.90
75210;DHT22;63796;53.136;14.882;2023-06-14T00:09:17;15.40;99.90
75210;DHT22;63796;53.136;14.882;2023-06-14T00:11:45;15.40;99.90
75210;DHT22;63796;53.136;14.882;2023-06-14T00:14:12;15.40;99.90
75210;DHT22;63796;53.136;14.882;2023-06-14T00:16:39;15.40;99.90
75210;DHT22;63796;53.136;14.882;2023-06-14T00:19:09;15.40;99.90
75210;DHT22;63796;53.136;14.882;2023-06-14T00:21:37;15.50;99.90
75210;DHT22;63796;53.136;14.882;2023-06-14T00:24:05;15.50;99.90
75210;DHT22;63796;53.136;14.882;2023-06-14T00:26:32;15.50;99.90
75210;DHT22;63796;53.136;14.882;2023-06-14T00:28:59;15.60;99.90
75210;DHT22;63796;53.136;14.882;2023-06-14T00:31:26;15.70;99.90
75210;DHT22;63796;53.136;14.882;2023-06-14T00:33:54;15.70;99.90
75210;DHT22;63796;53.136;14.882;2023-06-14T00:36:21;15.60;99.90
75210;DHT22;63796;53.136;14.882;2023-06-14T00:38:48;15.70;99.90
75210;DHT22;63796;53.136;14.882;2023-06-14T00:41:15;15.70;99.90
75210;DHT22;63796;53.136;14.882;2023-06-14T00:43:42;15.70;99.90
75210;DHT22;63796;53.136;14.882;2023-06-14T00:46:10;15.70;99.90
75210;DHT22;63796;53.136;14.882;2023-06-14T00:48:37;15.70;99.90
75210;DHT22;63796;53.136;14.882;2023-06-14T00:51:06;15.70;99.90
75210;DHT22;63796;53.136;14.882;2023-06-14T00:53:34;15.70;99.90
75210;DHT22;63796;53.136;14.882;2023-06-14T00:56:03;15.70;99.90
75210;DHT22;63796;53.136;14.882;2023-06-14T00:58:30;15.70;99.90
75210;DHT22;63796;53.136;14.882;2023-06-14T01:00:59;15.60;99.90
75210;DHT22;63796;53.136;14.882;2023-06-14T01:03:26;15.40;99.90
75210;DHT22;63796;53.136;14.882;2023-06-14T01:12:00;15.60;99.90
75210;DHT22;63796;53.136;14.882;2023-06-14T01:14:37;15.50;99.90
75210;DHT22;63796;53.136;14.882;2023-06-14T01:17:05;15.50;99.90
75210;DHT22;63796;53.136;14.882;2023-06-14T01:19:42;15.30;99.90
75210;DHT22;63796;53.136;14.882;2023-06-14T01:25:14;15.10;99.90
75210;DHT22;63796;53.136;14.882;2023-06-14T01:27:43;15.00;99.90
75210;DHT22;63796;53.136;14.882;2023-06-14T01:30:10;14.90;99.90
75210;DHT22;63796;53.136;14.882;2023-06-14T01:32:39;14.80;99.90
75210;DHT22;63796;53.136;14.882;2023-06-14T01:35:07;14.70;99.90
75210;DHT22;63796;53.136;14.882;2023-06-14T01:37:35;14.60;99.90
75210;DHT22;63796;53.136;14.882;2023-06-14T01:40:03;14.70;99.90
75210;DHT22;63796;53.136;14.882;2023-06-14T01:42:36;14.50;99.90
75210;DHT22;63796;53.136;14.882;2023-06-14T01:45:05;14.60;99.90
75210;DHT22;63796;53.136;14.882;2023-06-14T01:47:34;14.50;99.90
75210;DHT22;63796;53.136;14.882;2023-06-14T01:50:05;14.50;99.90
75210;DHT22;63796;53.136;14.882;2023-06-14T01:52:33;14.50;99.90
75210;DHT22;63796;53.136;14.882;2023-06-14T01:55:00;14.40;99.90
75210;DHT22;63796;53.136;14.882;2023-06-14T01:57:29;14.20;99.90
75210;DHT22;63796;53.136;14.882;2023-06-14T01:59:57;14.10;99.90
75210;DHT22;63796;53.136;14.882;2023-06-14T02:02:24;14.10;99.90
75210;DHT22;63796;53.136;14.882;2023-06-14T02:04:51;14.10;99.90
75210;DHT22;63796;53.136;14.882;2023-06-14T02:07:19;14.00;99.90
75210;DHT22;63796;53.136;14.882;2023-06-14T02:09:46;14.00;99.90
75210;DHT22;63796;53.136;14.882;2023-06-14T02:12:13;14.00;99.90
75210;DHT22;63796;53.136;14.882;2023-06-14T02:14:41;14.00;99.90
75210;DHT22;63796;53.136;14.882;2023-06-14T02:17:08;13.90;99.90
75210;DHT22;63796;53.136;14.882;2023-06-14T02:19:36;13.90;99.90
75210;DHT22;63796;53.136;14.882;2023-06-14T02:22:03;13.90;99.90
75210;DHT22;63796;53.136;14.882;2023-06-14T02:24:31;13.80;99.90
75210;DHT22;63796;53.136;14.882;2023-06-14T02:26:58;13.70;99.90
75210;DHT22;63796;53.136;14.882;2023-06-14T02:29:25;13.80;99.90
75210;DHT22;63796;53.136;14.882;2023-06-14T02:31:53;13.90;99.90
75210;DHT22;63796;53.136;14.882;2023-06-14T02:34:20;14.10;99.90
75210;DHT22;63796;53.136;14.882;2023-06-14T02:36:48;14.00;99.90
75210;DHT22;63796;53.136;14.882;2023-06-14T02:39:16;14.20;99.90
75210;DHT22;63796;53.136;14.882;2023-06-14T02:41:44;14.20;99.90
75210;DHT22;63796;53.136;14.882;2023-06-14T02:44:13;14.30;99.90
75210;DHT22;63796;53.136;14.882;2023-06-14T02:46:40;14.30;99.90
75210;DHT22;63796;53.136;14.882;2023-06-14T02:49:08;14.40;99.90
75210;DHT22;63796;53.136;14.882;2023-06-14T02:51:35;14.50;99.90
75210;DHT22;63796;53.136;14.882;2023-06-14T02:54:02;14.50;99.90
75210;DHT22;63796;53.136;14.882;2023-06-14T02:56:30;14.50;99.90
75210;DHT22;63796;53.136;14.882;2023-06-14T02:58:57;14.50;99.90
75210;DHT22;63796;53.136;14.882;2023-06-14T03:01:25;14.50;99.90
75210;DHT22;63796;53.136;14.882;2023-06-14T03:04:01;14.60;99.90
75210;DHT22;63796;53.136;14.882;2023-06-14T03:06:30;14.70;99.90
75210;DHT22;63796;53.136;14.882;2023-06-14T03:08:57;14.70;99.90
75210;DHT22;63796;53.136;14.882;2023-06-14T03:11:31;14.70;99.90
75210;DHT22;63796;53.136;14.882;2023-06-14T03:13:59;14.90;99.90
75210;DHT22;63796;53.136;14.882;2023-06-14T03:16:27;14.90;99.90
75210;DHT22;63796;53.136;14.882;2023-06-14T03:18:55;14.90;99.90
75210;DHT22;63796;53.136;14.882;2023-06-14T03:21:23;14.90;99.90
75210;DHT22;63796;53.136;14.882;2023-06-14T03:23:50;15.00;99.90
75210;DHT22;63796;53.136;14.882;2023-06-14T03:26:18;14.90;99.90
75210;DHT22;63796;53.136;14.882;2023-06-14T03:28:45;15.00;99.90
75210;DHT22;63796;53.136;14.882;2023-06-14T03:31:14;15.00;99.90
75210;DHT22;63796;53.136;14.882;2023-06-14T03:33:42;15.10;99.90
75210;DHT22;63796;53.136;14.882;2023-06-14T03:36:09;15.10;99.90
75210;DHT22;63796;53.136;14.882;2023-06-14T03:38:36;15.00;99.90
75210;DHT22;63796;53.136;14.882;2023-06-14T03:41:04;15.00;99.90
75210;DHT22;63796;53.136;14.882;2023-06-14T03:43:32;15.20;99.90
75210;DHT22;63796;53.136;14.882;2023-06-14T03:46:00;15.20;99.90
75210;DHT22;63796;53.136;14.882;2023-06-14T03:48:27;15.40;99.90
75210;DHT22;63796;53.136;14.882;2023-06-14T03:50:55;15.40;99.90
75210;DHT22;63796;53.136;14.882;2023-06-14T03:53:27;15.50;99.90
75210;DHT22;63796;53.136;14.882;2023-06-14T03:55:56;15.50;99.90
75210;DHT22;63796;53.136;14.882;2023-06-14T03:58:24;15.70;99.90
75210;DHT22;63796;53.136;14.882;2023-06-14T04:00:52;15.70;99.90
75210;DHT22;63796;53.136;14.882;2023-06-14T04:03:19;15.70;99.90
75210;DHT22;63796;53.136;14.882;2023-06-14T04:05:46;15.80;99.90
75210;DHT22;63796;53.136;14.882;2023-06-14T04:08:16;15.90;99.90
75210;DHT22;63796;53.136;14.882;2023-06-14T04:10:46;15.90;99.90
75210;DHT22;63796;53.136;14.882;2023-06-14T04:13:13;16.00;99.90
75210;DHT22;63796;53.136;14.882;2023-06-14T04:15:40;16.10;99.90
75210;DHT22;63796;53.136;14.882;2023-06-14T04:18:13;16.10;99.90
75210;DHT22;63796;53.136;14.882;2023-06-14T04:20:40;16.20;99.90
75210;DHT22;63796;53.136;14.882;2023-06-14T04:23:15;16.30;99.90
75210;DHT22;63796;53.136;14.882;2023-06-14T04:25:49;16.20;99.90
75210;DHT22;63796;53.136;14.882;2023-06-14T04:28:16;16.30;99.90
75210;DHT22;63796;53.136;14.882;2023-06-14T04:30:44;16.20;99.90
75210;DHT22;63796;53.136;14.882;2023-06-14T04:33:11;16.30;99.90
75210;DHT22;63796;53.136;14.882;2023-06-14T04:35:39;16.30;99.90
75210;DHT22;63796;53.136;14.882;2023-06-14T04:38:07;16.30;99.90
75210;DHT22;63796;53.136;14.882;2023-06-14T04:40:37;16.30;99.90
75210;DHT22;63796;53.136;14.882;2023-06-14T04:43:10;16.30;99.90
75210;DHT22;63796;53.136;14.882;2023-06-14T04:45:39;16.50;99.90
75210;DHT22;63796;53.136;14.882;2023-06-14T04:48:07;16.50;99.90
75210;DHT22;63796;53.136;14.882;2023-06-14T04:50:36;16.40;99.90
75210;DHT22;63796;53.136;14.882;2023-06-14T04:53:03;16.50;99.90
75210;DHT22;63796;53.136;14.882;2023-06-14T04:55:30;16.50;99.90
75210;DHT22;63796;53.136;14.882;2023-06-14T04:57:57;16.60;99.90
75210;DHT22;63796;53.136;14.882;2023-06-14T05:00:25;16.70;99.90
75210;DHT22;63796;53.136;14.882;2023-06-14T05:02:52;16.90;99.90
75210;DHT22;63796;53.136;14.882;2023-06-14T05:05:20;16.90;99.90
75210;DHT22;63796;53.136;14.882;2023-06-14T05:07:47;16.90;99.90
75210;DHT22;63796;53.136;14.882;2023-06-14T05:10:15;17.10;99.90
75210;DHT22;63796;53.136;14.882;2023-06-14T05:12:42;17.10;99.90
75210;DHT22;63796;53.136;14.882;2023-06-14T05:15:10;17.20;99.90
75210;DHT22;63796;53.136;14.882;2023-06-14T05:17:38;17.20;99.90
75210;DHT22;63796;53.136;14.882;2023-06-14T05:20:07;17.30;99.90
75210;DHT22;63796;53.136;14.882;2023-06-14T05:22:37;17.30;99.90
75210;DHT22;63796;53.136;14.882;2023-06-14T05:25:04;17.20;99.90
75210;DHT22;63796;53.136;14.882;2023-06-14T05:27:32;17.10;99.90
75210;DHT22;63796;53.136;14.882;2023-06-14T05:30:02;17.00;99.90
75210;DHT22;63796;53.136;14.882;2023-06-14T05:32:30;17.10;99.90
75210;DHT22;63796;53.136;14.882;2023-06-14T05:34:58;17.10;99.90
75210;DHT22;63796;53.136;14.882;2023-06-14T05:37:25;17.10;99.90
75210;DHT22;63796;53.136;14.882;2023-06-14T05:39:52;17.10;99.90
75210;DHT22;63796;53.136;14.882;2023-06-14T05:42:20;17.20;99.90
75210;DHT22;63796;53.136;14.882;2023-06-14T05:44:47;17.40;99.90
75210;DHT22;63796;53.136;14.882;2023-06-14T05:47:14;17.40;99.90
75210;DHT22;63796;53.136;14.882;2023-06-14T05:49:42;17.40;99.90
75210;DHT22;63796;53.136;14.882;2023-06-14T05:52:09;17.40;99.90
75210;DHT22;63796;53.136;14.882;2023-06-14T05:54:38;17.40;99.90
75210;DHT22;63796;53.136;14.882;2023-06-14T05:57:06;17.40;99.90
75210;DHT22;63796;53.136;14.882;2023-06-14T05:59:33;17.40;99.90
75210;DHT22;63796;53.136;14.882;2023-06-14T06:02:00;17.40;99.90
75210;DHT22;63796;53.136;14.882;2023-06-14T06:04:28;17.40;99.90
75210;DHT22;63796;53.136;14.882;2023-06-14T06:06:55;17.20;99.90
75210;DHT22;63796;53.136;14.882;2023-06-14T06:09:23;17.10;99.90
75210;DHT22;63796;53.136;14.882;2023-06-14T06:11:50;17.20;99.90
75210;DHT22;63796;53.136;14.882;2023-06-14T06:14:20;17.20;99.90
75210;DHT22;63796;53.136;14.882;2023-06-14T06:16:47;17.20;99.90
75210;DHT22;63796;53.136;14.882;2023-06-14T06:19:15;17.30;99.90
75210;DHT22;63796;53.136;14.882;2023-06-14T06:21:42;17.20;99.90
75210;DHT22;63796;53.136;14.882;2023-06-14T06:24:10;17.30;99.90
75210;DHT22;63796;53.136;14.882;2023-06-14T06:26:37;17.50;99.90
75210;DHT22;63796;53.136;14.882;2023-06-14T06:29:05;17.60;99.90
75210;DHT22;63796;53.136;14.882;2023-06-14T06:31:33;17.60;99.90
75210;DHT22;63796;53.136;14.882;2023-06-14T06:34:01;17.60;99.90
75210;DHT22;63796;53.136;14.882;2023-06-14T06:36:28;17.40;99.90
75210;DHT22;63796;53.136;14.882;2023-06-14T06:38:56;17.40;99.90
75210;DHT22;63796;53.136;14.882;2023-06-14T06:41:23;17.40;99.90
75210;DHT22;63796;53.136;14.882;2023-06-14T06:43:50;17.60;99.90
75210;DHT22;63796;53.136;14.882;2023-06-14T06:46:18;17.80;99.90
75210;DHT22;63796;53.136;14.882;2023-06-14T06:48:46;17.90;99.90
75210;DHT22;63796;53.136;14.882;2023-06-14T06:51:13;17.90;99.90
75210;DHT22;63796;53.136;14.882;2023-06-14T06:53:41;18.00;99.90
75210;DHT22;63796;53.136;14.882;2023-06-14T06:56:15;18.10;99.90
75210;DHT22;63796;53.136;14.882;2023-06-14T06:58:42;18.20;99.90
75210;DHT22;63796;53.136;14.882;2023-06-14T07:01:10;18.30;99.90
75210;DHT22;63796;53.136;14.882;2023-06-14T07:03:38;18.40;99.90
75210;DHT22;63796;53.136;14.882;2023-06-14T07:06:06;18.30;99.90
75210;DHT22;63796;53.136;14.882;2023-06-14T07:08:33;18.50;99.90
75210;DHT22;63796;53.136;14.882;2023-06-14T07:11:01;18.40;99.90
75210;DHT22;63796;53.136;14.882;2023-06-14T07:13:29;18.70;99.90
75210;DHT22;63796;53.136;14.882;2023-06-14T07:15:59;18.80;99.90
75210;DHT22;63796;53.136;14.882;2023-06-14T07:18:27;18.80;99.90
75210;DHT22;63796;53.136;14.882;2023-06-14T07:20:55;19.00;99.90
75210;DHT22;63796;53.136;14.882;2023-06-14T07:23:23;18.90;99.90
75210;DHT22;63796;53.136;14.882;2023-06-14T07:25:51;19.00;99.90
75210;DHT22;63796;53.136;14.882;2023-06-14T07:28:19;18.90;99.90
75210;DHT22;63796;53.136;14.882;2023-06-14T07:30:46;18.90;99.90
75210;DHT22;63796;53.136;14.882;2023-06-14T07:33:15;18.80;99.90
75210;DHT22;63796;53.136;14.882;2023-06-14T07:35:42;18.90;99.90
75210;DHT22;63796;53.136;14.882;2023-06-14T07:38:10;18.80;99.90
75210;DHT22;63796;53.136;14.882;2023-06-14T07:40:40;18.80;99.90
75210;DHT22;63796;53.136;14.882;2023-06-14T07:43:08;18.80;99.90
75210;DHT22;63796;53.136;14.882;2023-06-14T07:45:37;18.70;99.90
75210;DHT22;63796;53.136;14.882;2023-06-14T07:48:08;18.70;99.90
75210;DHT22;63796;53.136;14.882;2023-06-14T07:50:37;18.80;99.90
75210;DHT22;63796;53.136;14.882;2023-06-14T07:53:04;18.90;99.90
75210;DHT22;63796;53.136;14.882;2023-06-14T07:55:31;18.90;99.90
75210;DHT22;63796;53.136;14.882;2023-06-14T07:58:11;19.10;99.90
75210;DHT22;63796;53.136;14.882;2023-06-14T08:00:38;19.40;99.90
75210;DHT22;63796;53.136;14.882;2023-06-14T08:03:06;19.60;99.90
75210;DHT22;63796;53.136;14.882;2023-06-14T08:05:33;19.80;99.90
75210;DHT22;63796;53.136;14.882;2023-06-14T08:08:01;19.80;99.90
75210;DHT22;63796;53.136;14.882;2023-06-14T08:10:29;19.80;99.90
75210;DHT22;63796;53.136;14.882;2023-06-14T08:12:56;20.00;99.90
75210;DHT22;63796;53.136;14.882;2023-06-14T08:15:24;20.30;99.90
75210;DHT22;63796;53.136;14.882;2023-06-14T08:17:51;20.40;99.90
75210;DHT22;63796;53.136;14.882;2023-06-14T08:20:19;20.40;99.90
75210;DHT22;63796;53.136;14.882;2023-06-14T08:22:46;20.50;99.90
75210;DHT22;63796;53.136;14.882;2023-06-14T08:25:15;20.50;99.90
75210;DHT22;63796;53.136;14.882;2023-06-14T08:27:43;20.50;99.90
75210;DHT22;63796;53.136;14.882;2023-06-14T08:30:10;20.60;99.90
75210;DHT22;63796;53.136;14.882;2023-06-14T08:32:38;20.80;99.90
75210;DHT22;63796;53.136;14.882;2023-06-14T08:35:06;21.10;99.90
75210;DHT22;63796;53.136;14.882;2023-06-14T08:37:37;21.20;99.90
75210;DHT22;63796;53.136;14.882;2023-06-14T08:40:13;21.20;99.90
75210;DHT22;63796;53.136;14.882;2023-06-14T08:42:52;21.70;99.90
75210;DHT22;63796;53.136;14.882;2023-06-14T08:45:21;22.10;99.90
75210;DHT22;63796;53.136;14.882;2023-06-14T08:47:52;22.70;99.90
75210;DHT22;63796;53.136;14.882;2023-06-14T08:50:25;23.40;99.90
75210;DHT22;63796;53.136;14.882;2023-06-14T08:52:59;24.00;99.90
75210;DHT22;63796;53.136;14.882;2023-06-14T08:55:29;25.00;99.90
75210;DHT22;63796;53.136;14.882;2023-06-14T08:58:01;25.90;99.90
75210;DHT22;63796;53.136;14.882;2023-06-14T09:00:30;27.10;99.90
75210;DHT22;63796;53.136;14.882;2023-06-14T09:03:00;27.80;99.90
75210;DHT22;63796;53.136;14.882;2023-06-14T09:05:28;28.10;98.30
75210;DHT22;63796;53.136;14.882;2023-06-14T09:07:56;27.20;97.20
75210;DHT22;63796;53.136;14.882;2023-06-14T09:10:32;26.10;99.10
75210;DHT22;63796;53.136;14.882;2023-06-14T09:13:05;26.60;99.90
75210;DHT22;63796;53.136;14.882;2023-06-14T09:15:34;28.00;97.00
75210;DHT22;63796;53.136;14.882;2023-06-14T09:18:02;29.20;94.30
75210;DHT22;63796;53.136;14.882;2023-06-14T09:20:30;32.80;88.60
75210;DHT22;63796;53.136;14.882;2023-06-14T09:22:58;32.60;79.00
75210;DHT22;63796;53.136;14.882;2023-06-14T09:25:26;31.60;81.30
75210;DHT22;63796;53.136;14.882;2023-06-14T09:28:06;31.40;81.40
75210;DHT22;63796;53.136;14.882;2023-06-14T09:30:36;32.10;78.80
75210;DHT22;63796;53.136;14.882;2023-06-14T09:33:04;34.20;74.00
75210;DHT22;63796;53.136;14.882;2023-06-14T09:35:32;37.70;65.60
75210;DHT22;63796;53.136;14.882;2023-06-14T09:37:59;38.80;60.00
75210;DHT22;63796;53.136;14.882;2023-06-14T09:40:27;39.50;58.20
75210;DHT22;63796;53.136;14.882;2023-06-14T09:42:55;39.80;56.10
75210;DHT22;63796;53.136;14.882;2023-06-14T09:45:25;41.10;54.40
75210;DHT22;63796;53.136;14.882;2023-06-14T09:47:57;41.20;52.30
75210;DHT22;63796;53.136;14.882;2023-06-14T09:50:28;40.90;53.30
75210;DHT22;63796;53.136;14.882;2023-06-14T09:52:56;41.30;52.20
75210;DHT22;63796;53.136;14.882;2023-06-14T09:55:30;41.90;51.80
75210;DHT22;63796;53.136;14.882;2023-06-14T09:57:58;43.20;50.70
75210;DHT22;63796;53.136;14.882;2023-06-14T10:00:27;42.10;49.80
75210;DHT22;63796;53.136;14.882;2023-06-14T10:03:00;41.20;51.00
75210;DHT22;63796;53.136;14.882;2023-06-14T10:05:33;40.60;50.50
75210;DHT22;63796;53.136;14.882;2023-06-14T10:08:04;40.90;50.50
75210;DHT22;63796;53.136;14.882;2023-06-14T10:10:35;41.70;50.70
75210;DHT22;63796;53.136;14.882;2023-06-14T10:13:06;41.90;49.90
75210;DHT22;63796;53.136;14.882;2023-06-14T10:21:41;41.40;50.10
75210;DHT22;63796;53.136;14.882;2023-06-14T10:24:10;41.30;50.40
75210;DHT22;63796;53.136;14.882;2023-06-14T10:26:53;42.40;48.80
75210;DHT22;63796;53.136;14.882;2023-06-14T10:29:26;39.30;50.20
75210;DHT22;63796;53.136;14.882;2023-06-14T10:31:57;40.70;49.70
75210;DHT22;63796;53.136;14.882;2023-06-14T10:34:29;38.50;51.60
75210;DHT22;63796;53.136;14.882;2023-06-14T10:37:05;35.80;53.50
75210;DHT22;63796;53.136;14.882;2023-06-14T10:39:43;33.30;56.40
75210;DHT22;63796;53.136;14.882;2023-06-14T10:42:15;35.90;54.20
75210;DHT22;63796;53.136;14.882;2023-06-14T10:44:47;37.50;53.80
75210;DHT22;63796;53.136;14.882;2023-06-14T10:49:53;37.30;52.40
75210;DHT22;63796;53.136;14.882;2023-06-14T10:52:40;39.80;50.50
75210;DHT22;63796;53.136;14.882;2023-06-14T10:55:13;41.70;49.10
75210;DHT22;63796;53.136;14.882;2023-06-14T10:57:46;41.80;49.10
75210;DHT22;63796;53.136;14.882;2023-06-14T11:00:21;40.60;48.00
75210;DHT22;63796;53.136;14.882;2023-06-14T11:03:02;40.80;48.40
75210;DHT22;63796;53.136;14.882;2023-06-14T11:08:23;41.00;49.40
75210;DHT22;63796;53.136;14.882;2023-06-14T11:11:01;41.30;49.20
75210;DHT22;63796;53.136;14.882;2023-06-14T11:13:33;39.20;49.80
75210;DHT22;63796;53.136;14.882;2023-06-14T11:16:09;38.70;50.90
75210;DHT22;63796;53.136;14.882;2023-06-14T11:18:39;39.20;50.50
75210;DHT22;63796;53.136;14.882;2023-06-14T11:21:06;39.40;49.70
75210;DHT22;63796;53.136;14.882;2023-06-14T11:23:35;38.70;50.20
75210;DHT22;63796;53.136;14.882;2023-06-14T11:26:03;38.00;50.90
75210;DHT22;63796;53.136;14.882;2023-06-14T11:28:38;37.40;51.30
75210;DHT22;63796;53.136;14.882;2023-06-14T11:31:09;37.60;50.90
75210;DHT22;63796;53.136;14.882;2023-06-14T11:33:37;37.00;49.60
75210;DHT22;63796;53.136;14.882;2023-06-14T11:36:05;36.40;51.70
75210;DHT22;63796;53.136;14.882;2023-06-14T11:38:36;34.40;54.00
75210;DHT22;63796;53.136;14.882;2023-06-14T11:41:04;35.20;53.80
75210;DHT22;63796;53.136;14.882;2023-06-14T11:43:31;35.10;52.70
75210;DHT22;63796;53.136;14.882;2023-06-14T11:46:01;34.80;52.40
75210;DHT22;63796;53.136;14.882;2023-06-14T11:48:41;34.70;52.50
75210;DHT22;63796;53.136;14.882;2023-06-14T11:51:09;34.60;53.50
75210;DHT22;63796;53.136;14.882;2023-06-14T11:53:38;37.30;50.40
75210;DHT22;63796;53.136;14.882;2023-06-14T11:56:06;36.10;51.20
75210;DHT22;63796;53.136;14.882;2023-06-14T11:58:34;32.00;54.60
75210;DHT22;63796;53.136;14.882;2023-06-14T12:01:02;31.80;54.90
75210;DHT22;63796;53.136;14.882;2023-06-14T12:03:31;32.10;55.40
75210;DHT22;63796;53.136;14.882;2023-06-14T12:06:01;31.10;57.00
75210;DHT22;63796;53.136;14.882;2023-06-14T12:08:35;30.60;57.30
75210;DHT22;63796;53.136;14.882;2023-06-14T12:11:07;30.10;57.60
75210;DHT22;63796;53.136;14.882;2023-06-14T12:13:41;29.60;59.10
75210;DHT22;63796;53.136;14.882;2023-06-14T12:16:09;28.80;61.70
75210;DHT22;63796;53.136;14.882;2023-06-14T12:18:38;27.80;65.30
75210;DHT22;63796;53.136;14.882;2023-06-14T12:21:08;27.60;66.90
75210;DHT22;63796;53.136;14.882;2023-06-14T12:23:43;27.10;69.00
75210;DHT22;63796;53.136;14.882;2023-06-14T12:26:18;26.60;71.70
75210;DHT22;63796;53.136;14.882;2023-06-14T12:28:47;26.30;73.60
75210;DHT22;63796;53.136;14.882;2023-06-14T12:31:15;25.60;76.70
75210;DHT22;63796;53.136;14.882;2023-06-14T12:33:43;25.10;79.80
75210;DHT22;63796;53.136;14.882;2023-06-14T12:36:13;24.70;82.90
75210;DHT22;63796;53.136;14.882;2023-06-14T12:38:40;24.30;85.60
75210;DHT22;63796;53.136;14.882;2023-06-14T12:41:08;24.50;86.20
75210;DHT22;63796;53.136;14.882;2023-06-14T12:43:36;24.30;88.30
75210;DHT22;63796;53.136;14.882;2023-06-14T12:46:04;24.00;91.00
75210;DHT22;63796;53.136;14.882;2023-06-14T12:48:31;24.10;91.60
75210;DHT22;63796;53.136;14.882;2023-06-14T12:50:59;24.20;91.70
75210;DHT22;63796;53.136;14.882;2023-06-14T12:53:27;24.10;92.00
75210;DHT22;63796;53.136;14.882;2023-06-14T12:55:54;24.00;91.90
75210;DHT22;63796;53.136;14.882;2023-06-14T12:58:21;24.30;92.00
75210;DHT22;63796;53.136;14.882;2023-06-14T13:00:50;24.60;91.30
75210;DHT22;63796;53.136;14.882;2023-06-14T13:03:18;24.60;90.90
75210;DHT22;63796;53.136;14.882;2023-06-14T13:05:46;24.60;91.10
75210;DHT22;63796;53.136;14.882;2023-06-14T13:08:13;24.30;91.50
75210;DHT22;63796;53.136;14.882;2023-06-14T13:10:40;24.40;91.60
75210;DHT22;63796;53.136;14.882;2023-06-14T13:13:08;24.50;91.80
75210;DHT22;63796;53.136;14.882;2023-06-14T13:15:35;24.50;92.20
75210;DHT22;63796;53.136;14.882;2023-06-14T13:18:03;24.40;92.40
75210;DHT22;63796;53.136;14.882;2023-06-14T13:20:30;24.40;92.90
75210;DHT22;63796;53.136;14.882;2023-06-14T13:22:59;24.30;92.10
75210;DHT22;63796;53.136;14.882;2023-06-14T13:25:26;24.30;92.20
75210;DHT22;63796;53.136;14.882;2023-06-14T13:27:54;24.30;92.10
75210;DHT22;63796;53.136;14.882;2023-06-14T13:30:21;24.40;91.70
75210;DHT22;63796;53.136;14.882;2023-06-14T13:32:49;24.50;92.10
75210;DHT22;63796;53.136;14.882;2023-06-14T13:35:19;24.50;92.00
75210;DHT22;63796;53.136;14.882;2023-06-14T13:37:46;24.50;91.70
75210;DHT22;63796;53.136;14.882;2023-06-14T13:40:14;24.60;91.80
75210;DHT22;63796;53.136;14.882;2023-06-14T13:42:41;24.60;91.90
75210;DHT22;63796;53.136;14.882;2023-06-14T13:45:10;24.60;91.20
75210;DHT22;63796;53.136;14.882;2023-06-14T13:47:38;24.50;91.00
75210;DHT22;63796;53.136;14.882;2023-06-14T13:50:06;24.40;90.60
75210;DHT22;63796;53.136;14.882;2023-06-14T13:52:34;24.00;91.70
75210;DHT22;63796;53.136;14.882;2023-06-14T13:55:02;24.50;92.10
75210;DHT22;63796;53.136;14.882;2023-06-14T13:57:29;24.80;90.70
75210;DHT22;63796;53.136;14.882;2023-06-14T13:59:56;25.00;90.40
75210;DHT22;63796;53.136;14.882;2023-06-14T14:02:28;25.20;88.50
75210;DHT22;63796;53.136;14.882;2023-06-14T14:04:56;25.40;87.40
75210;DHT22;63796;53.136;14.882;2023-06-14T14:07:24;25.40;86.50
75210;DHT22;63796;53.136;14.882;2023-06-14T14:09:51;25.60;89.00
75210;DHT22;63796;53.136;14.882;2023-06-14T14:12:20;25.80;85.70
75210;DHT22;63796;53.136;14.882;2023-06-14T14:14:47;25.90;83.60
75210;DHT22;63796;53.136;14.882;2023-06-14T14:17:15;26.00;84.10
75210;DHT22;63796;53.136;14.882;2023-06-14T14:19:42;26.00;85.30
75210;DHT22;63796;53.136;14.882;2023-06-14T14:22:09;26.20;85.60
75210;DHT22;63796;53.136;14.882;2023-06-14T14:24:37;26.40;85.40
75210;DHT22;63796;53.136;14.882;2023-06-14T14:27:04;26.30;85.20
75210;DHT22;63796;53.136;14.882;2023-06-14T14:29:32;26.30;86.10
75210;DHT22;63796;53.136;14.882;2023-06-14T14:31:59;26.30;84.60
75210;DHT22;63796;53.136;14.882;2023-06-14T14:34:27;26.40;84.00
75210;DHT22;63796;53.136;14.882;2023-06-14T14:36:55;26.30;85.80
75210;DHT22;63796;53.136;14.882;2023-06-14T14:39:23;26.30;88.30
75210;DHT22;63796;53.136;14.882;2023-06-14T14:41:50;26.30;87.40
75210;DHT22;63796;53.136;14.882;2023-06-14T14:44:17;26.40;87.90
75210;DHT22;63796;53.136;14.882;2023-06-14T14:46:46;26.50;86.90
75210;DHT22;63796;53.136;14.882;2023-06-14T14:49:13;26.50;87.90
75210;DHT22;63796;53.136;14.882;2023-06-14T14:51:41;26.70;88.50
75210;DHT22;63796;53.136;14.882;2023-06-14T14:54:08;26.30;84.10
75210;DHT22;63796;53.136;14.882;2023-06-14T14:56:35;26.20;88.70
75210;DHT22;63796;53.136;14.882;2023-06-14T14:59:04;26.40;90.00
75210;DHT22;63796;53.136;14.882;2023-06-14T15:01:32;26.50;90.50
75210;DHT22;63796;53.136;14.882;2023-06-14T15:03:59;26.40;91.00
75210;DHT22;63796;53.136;14.882;2023-06-14T15:06:27;26.20;91.70
75210;DHT22;63796;53.136;14.882;2023-06-14T15:08:55;26.20;92.10
75210;DHT22;63796;53.136;14.882;2023-06-14T15:11:23;26.20;93.40
75210;DHT22;63796;53.136;14.882;2023-06-14T15:13:50;26.30;93.90
75210;DHT22;63796;53.136;14.882;2023-06-14T15:16:17;26.10;93.60
75210;DHT22;63796;53.136;14.882;2023-06-14T15:18:45;25.90;94.70
75210;DHT22;63796;53.136;14.882;2023-06-14T15:21:12;25.70;94.40
75210;DHT22;63796;53.136;14.882;2023-06-14T15:23:40;25.40;94.20
75210;DHT22;63796;53.136;14.882;2023-06-14T15:26:08;25.50;93.90
75210;DHT22;63796;53.136;14.882;2023-06-14T15:28:35;25.50;95.00
75210;DHT22;63796;53.136;14.882;2023-06-14T15:31:02;25.30;95.10
75210;DHT22;63796;53.136;14.882;2023-06-14T15:33:30;25.10;95.70
75210;DHT22;63796;53.136;14.882;2023-06-14T15:35:57;25.10;95.10
75210;DHT22;63796;53.136;14.882;2023-06-14T15:38:24;24.70;95.10
75210;DHT22;63796;53.136;14.882;2023-06-14T15:40:52;24.60;95.70
75210;DHT22;63796;53.136;14.882;2023-06-14T15:43:19;25.00;95.60
75210;DHT22;63796;53.136;14.882;2023-06-14T15:45:46;24.80;94.30